Time;durP1;ratioP1;P1;durP2;ratioP2;P2;SDS_P1;SDS_P2;PMS_P1;PMS_P2;Temp;Humidity;BMP_temperature;BMP_pressure;BME280_temperature;BME280_humidity;BME280_pressure;Samples;Min_cycle;Max_cycle;Signal;HPM_P1;HPM_P2
2022/10/18 00:00:01;;;;;;;13.48;7.37;;;;;;;10.16;76.69;101138.70;1770345;79;21503;-64
2022/10/18 00:02:29;;;;;;;16.87;8.00;;;;;;;10.16;76.63;101124.25;1743401;80;21762;-64
2022/10/18 00:04:56;;;;;;;11.70;7.37;;;;;;;10.16;76.92;101129.50;1759541;79;21439;-67
2022/10/18 00:07:22;;;;;;;13.15;7.50;;;;;;;10.16;77.55;101125.56;1746856;81;21506;-60
2022/10/18 00:09:50;;;;;;;15.20;7.22;;;;;;;10.14;77.33;101129.52;1738113;80;21573;-63
2022/10/18 00:12:18;;;;;;;13.32;8.03;;;;;;;10.13;77.60;101122.09;1748801;80;21491;-62
2022/10/18 00:14:49;;;;;;;10.70;7.67;;;;;;;10.13;77.45;101120.78;1747812;81;21846;-63
2022/10/18 00:17:16;;;;;;;17.98;8.40;;;;;;;10.14;77.09;101125.58;1752867;79;21553;-62
2022/10/18 00:19:43;;;;;;;15.88;7.55;;;;;;;10.08;77.91;101118.67;1742074;79;21034;-62
2022/10/18 00:22:10;;;;;;;14.13;7.25;;;;;;;10.06;77.89;101109.95;1695930;83;21510;-62
2022/10/18 00:24:37;;;;;;;13.20;7.92;;;;;;;10.03;77.70;101107.36;1728505;79;21506;-62
2022/10/18 00:27:03;;;;;;;13.45;8.13;;;;;;;10.03;77.77;101106.50;1750381;79;21783;-62
2022/10/18 00:29:30;;;;;;;14.20;7.70;;;;;;;10.01;78.07;101106.52;1751339;78;21526;-62
2022/10/18 00:31:57;;;;;;;12.03;8.18;;;;;;;9.99;78.53;101110.94;1739279;80;21498;-63
2022/10/18 00:34:25;;;;;;;11.40;7.60;;;;;;;8.91;78.86;100930.23;1735795;81;21633;-62
2022/10/18 00:36:51;;;;;;;10.63;8.05;;;;;;;9.91;79.59;101108.45;1745813;80;21443;-62
2022/10/18 00:39:20;;;;;;;12.88;8.13;;;;;;;9.88;78.95;101100.61;1757569;79;21889;-62
2022/10/18 00:41:47;;;;;;;11.83;7.90;;;;;;;9.88;79.42;101094.03;1748278;80;21108;-62
2022/10/18 00:44:28;;;;;;;9.05;7.17;;;;;;;9.85;79.60;101092.80;1746358;79;21606;-63
2022/10/18 00:47:02;;;;;;;11.45;7.53;;;;;;;9.84;80.09;101098.07;1742127;81;21480;-62
2022/10/18 00:49:45;;;;;;;10.55;8.00;;;;;;;9.81;79.79;101098.97;1740575;80;21432;-62
2022/10/18 00:52:16;;;;;;;12.50;7.10;;;;;;;9.76;80.03;101095.57;1744485;80;21859;-63
2022/10/18 00:54:44;;;;;;;14.43;7.70;;;;;;;9.68;81.04;101089.12;1748189;79;21542;-62
2022/10/18 00:57:12;;;;;;;15.00;7.87;;;;;;;9.62;81.56;101085.72;1742524;81;21571;-62
2022/10/18 00:59:39;;;;;;;11.93;7.47;;;;;;;9.59;81.94;101089.70;1743557;79;21001;-62
2022/10/18 01:02:06;;;;;;;13.85;6.62;;;;;;;9.58;81.25;101080.95;1750236;80;21418;-63
2022/10/18 01:04:33;;;;;;;13.32;8.00;;;;;;;9.54;82.22;101080.59;1749581;79;21779;-62
2022/10/18 01:07:34;;;;;;;11.95;8.03;;;;;;;9.47;82.92;101082.43;1740319;81;21571;-62
2022/10/18 01:10:40;;;;;;;20.45;8.23;;;;;;;9.46;83.34;101083.80;1743097;80;21530;-62
2022/10/18 01:13:44;;;;;;;14.33;7.20;;;;;;;9.45;81.80;101076.80;1747525;80;21503;-62
2022/10/18 01:16:27;;;;;;;13.88;7.60;;;;;;;9.42;82.35;101069.84;1727128;80;21526;-61
2022/10/18 01:19:11;;;;;;;15.03;7.37;;;;;;;9.38;82.41;101073.41;1753354;80;21937;-63
2022/10/18 01:21:50;;;;;;;13.18;7.60;;;;;;;9.34;83.12;101071.70;1738792;80;21472;-62
2022/10/18 01:25:07;;;;;;;12.90;7.25;;;;;;;9.29;83.63;101069.16;1691390;83;21704;-62
2022/10/18 01:27:43;;;;;;;;;;;;;;;9.29;83.75;101068.30;1744855;80;21542;-62
2022/10/18 01:30:40;;;;;;;16.93;6.95;;;;;;;9.22;87.08;101068.81;1765060;80;20519;-62
2022/10/18 01:33:25;;;;;;;17.07;7.97;;;;;;;9.21;83.41;101065.78;1754757;79;21887;-63
2022/10/18 01:36:14;;;;;;;11.63;6.95;;;;;;;9.20;83.56;101061.87;1757298;80;21429;-62
2022/10/18 01:38:42;;;;;;;11.33;6.95;;;;;;;9.18;83.98;101055.32;1751317;80;21498;-63
2022/10/18 01:41:09;;;;;;;13.90;7.65;;;;;;;9.18;83.65;101054.01;1757754;80;21092;-62
2022/10/18 01:43:36;;;;;;;14.33;8.13;;;;;;;9.16;84.26;101051.86;1757296;80;21081;-62
2022/10/18 01:46:03;;;;;;;13.00;7.75;;;;;;;9.15;83.88;101049.69;1738992;80;21511;-61
2022/10/18 01:48:30;;;;;;;12.63;7.92;;;;;;;9.16;84.88;101055.79;1751402;80;21550;-63
2022/10/18 01:50:56;;;;;;;13.50;7.33;;;;;;;9.13;85.69;101047.95;1751639;80;21436;-63
2022/10/18 01:53:28;;;;;;;14.83;8.10;;;;;;;9.13;85.97;101041.39;1733801;80;21483;-62
2022/10/18 01:56:22;;;;;;;14.00;7.35;;;;;;;9.14;84.87;101041.38;1763891;80;20940;-63
2022/10/18 01:59:03;;;;;;;12.28;8.20;;;;;;;9.16;84.94;101041.36;1751142;79;21827;-63
2022/10/18 02:01:44;;;;;;;13.10;7.55;;;;;;;9.15;84.70;101033.94;1754139;80;21585;-63
2022/10/18 02:04:19;;;;;;;16.90;8.60;;;;;;;9.15;85.73;101034.36;1741902;80;21486;-60
2022/10/18 02:06:47;;;;;;;11.30;6.90;;;;;;;9.15;85.60;101027.80;1751589;80;21721;-61
2022/10/18 02:09:18;;;;;;;13.10;7.58;;;;;;;9.13;85.50;101029.13;1694444;84;21633;-61
2022/10/18 02:11:46;;;;;;;12.13;7.90;;;;;;;9.12;86.60;101026.55;1745932;80;21798;-61
2022/10/18 02:14:13;;;;;;;;;;;;;;;9.15;85.54;101022.55;1718313;80;21589;-61
2022/10/18 02:16:53;;;;;;;19.82;7.97;;;;;;;9.12;90.41;101019.99;1740138;80;20508;-61
2022/10/18 02:19:35;;;;;;;16.02;7.85;;;;;;;9.11;85.68;101017.80;1751150;79;21108;-61
2022/10/18 02:22:01;;;;;;;12.13;7.30;;;;;;;9.11;85.32;101009.92;1747962;80;21045;-61
2022/10/18 02:24:34;;;;;;;10.25;7.00;;;;;;;9.10;86.18;101006.89;1751020;80;21879;-62
2022/10/18 02:27:01;;;;;;;11.40;7.70;;;;;;;9.08;86.20;101006.47;1754985;80;21493;-61
2022/10/18 02:29:29;;;;;;;12.47;7.25;;;;;;;9.08;86.03;101003.43;1763996;79;21632;-61
2022/10/18 02:32:10;;;;;;;10.80;7.90;;;;;;;9.07;86.27;100999.05;1756872;79;21489;-61
2022/10/18 02:34:42;;;;;;;12.28;7.70;;;;;;;9.07;86.71;101000.37;1758232;80;21519;-64
2022/10/18 02:37:08;;;;;;;13.38;8.00;;;;;;;9.08;86.33;101000.80;1754413;80;21809;-60
2022/10/18 02:39:40;;;;;;;10.70;7.15;;;;;;;9.08;86.05;101000.80;1763158;79;21403;-60
2022/10/18 02:42:09;;;;;;;13.72;7.75;;;;;;;9.07;86.39;100998.20;1756872;80;21014;-60
2022/10/18 02:44:36;;;;;;;11.80;7.95;;;;;;;9.05;87.07;100991.66;1733207;80;21486;-60
2022/10/18 02:47:04;;;;;;;10.93;7.43;;;;;;;9.06;86.51;100992.52;1758059;80;20998;-60
2022/10/18 02:49:30;;;;;;;11.85;7.85;;;;;;;9.03;86.81;100989.50;1752194;80;21947;-60
2022/10/18 02:51:57;;;;;;;12.00;7.60;;;;;;;9.02;86.47;100984.27;1766458;79;21427;-60
2022/10/18 02:54:24;;;;;;;11.20;7.80;;;;;;;8.98;87.83;100977.34;1724019;82;21525;-60
2022/10/18 02:56:50;;;;;;;12.53;7.90;;;;;;;8.96;87.51;100985.23;1765444;79;21645;-60
2022/10/18 02:59:17;;;;;;;11.90;8.13;;;;;;;8.92;88.17;100983.09;1761433;80;21267;-60
2022/10/18 03:01:44;;;;;;;14.85;7.95;;;;;;;8.91;88.55;100981.80;1759548;80;21830;-60
2022/10/18 03:04:11;;;;;;;12.18;7.22;;;;;;;8.92;87.77;100979.61;1748563;80;21406;-60
2022/10/18 03:06:37;;;;;;;9.43;7.05;;;;;;;8.90;88.50;100980.94;1755133;80;21436;-61
2022/10/18 03:09:04;;;;;;;15.18;7.85;;;;;;;8.90;88.74;100973.53;1761086;80;21502;-60
2022/10/18 03:11:31;;;;;;;10.70;7.63;;;;;;;8.92;88.19;100973.91;1760149;79;21443;-60
2022/10/18 03:13:58;;;;;;;15.18;7.78;;;;;;;8.93;87.73;100976.97;1760375;79;22176;-60
2022/10/18 03:16:27;;;;;;;12.95;6.92;;;;;;;8.93;87.98;100974.34;1768720;79;21406;-60
2022/10/18 03:18:55;;;;;;;13.70;7.83;;;;;;;8.98;87.68;100969.48;1760954;80;21082;-60
2022/10/18 03:21:22;;;;;;;10.58;7.83;;;;;;;8.99;87.94;100968.14;1763314;80;22104;-60
2022/10/18 03:23:48;;;;;;;11.70;8.60;;;;;;;8.99;87.48;100969.45;1750008;80;20951;-60
2022/10/18 03:26:16;;;;;;;13.98;7.55;;;;;;;9.00;87.20;100960.68;1761868;80;21518;-60
2022/10/18 03:28:43;;;;;;;14.60;7.42;;;;;;;9.01;86.95;100957.63;1754445;80;21553;-60
2022/10/18 03:31:10;;;;;;;12.20;7.92;;;;;;;9.01;86.85;100953.70;1759298;80;21605;-61
2022/10/18 03:33:37;;;;;;;9.43;7.22;;;;;;;8.99;87.84;100948.92;1767510;79;21484;-60
2022/10/18 03:36:05;;;;;;;12.07;7.50;;;;;;;8.96;88.44;100948.05;1765597;79;21023;-59
2022/10/18 03:38:32;;;;;;;10.05;7.22;;;;;;;8.99;87.56;100946.30;1753395;80;22141;-61
2022/10/18 03:40:59;;;;;;;13.10;8.00;;;;;;;8.95;88.48;100939.78;1767751;79;21563;-60
2022/10/18 03:43:26;;;;;;;11.85;8.23;;;;;;;8.96;88.04;100941.95;1757279;80;21088;-60
2022/10/18 03:45:53;;;;;;;11.03;7.17;;;;;;;8.98;87.86;100937.55;1753342;80;20997;-60
2022/10/18 03:48:21;;;;;;;12.03;7.15;;;;;;;8.99;87.71;100940.60;1762051;80;21636;-60
2022/10/18 03:50:47;;;;;;;16.80;8.20;;;;;;;9.00;87.64;100943.62;1763525;79;21882;-60
2022/10/18 03:53:14;;;;;;;10.98;6.97;;;;;;;9.02;87.38;100937.05;1755072;80;21568;-60
2022/10/18 03:55:40;;;;;;;14.93;8.03;;;;;;;9.03;87.42;100937.48;1773046;79;21573;-60
2022/10/18 03:58:08;;;;;;;14.58;7.97;;;;;;;9.01;87.64;100941.89;1746814;79;21419;-61
2022/10/18 04:00:36;;;;;;;10.90;7.28;;;;;;;8.99;87.77;100943.22;1767523;79;21529;-61
2022/10/18 04:03:02;;;;;;;13.98;7.70;;;;;;;9.02;87.28;100943.61;1765828;79;21790;-60
2022/10/18 04:05:30;;;;;;;10.32;7.22;;;;;;;9.02;87.44;100947.55;1750236;80;21536;-60
2022/10/18 04:07:57;;;;;;;12.53;6.87;;;;;;;9.03;87.43;100938.80;1757076;79;21625;-61
2022/10/18 04:10:25;;;;;;;13.70;7.30;;;;;;;9.03;87.19;100935.72;1750212;80;21577;-60
2022/10/18 04:12:53;;;;;;;11.00;6.87;;;;;;;9.03;87.38;100934.41;1754839;79;21011;-59
2022/10/18 04:15:20;;;;;;;16.10;7.72;;;;;;;9.02;87.29;100929.18;1756052;80;21882;-60
2022/10/18 04:17:46;;;;;;;14.78;7.03;;;;;;;9.02;86.84;100927.41;1758331;79;21482;-60
2022/10/18 04:20:13;;;;;;;11.48;6.70;;;;;;;9.03;87.31;100930.93;1753099;80;21537;-63
2022/10/18 04:22:40;;;;;;;11.53;6.78;;;;;;;9.01;87.45;100927.02;1761198;80;21585;-59
2022/10/18 04:25:07;;;;;;;10.30;7.53;;;;;;;9.01;87.25;100919.14;1745975;80;21416;-60
2022/10/18 04:27:35;;;;;;;14.35;6.62;;;;;;;9.01;87.16;100915.20;1696257;83;21875;-60
2022/10/18 04:30:02;;;;;;;9.53;6.57;;;;;;;9.03;87.00;100913.88;1757948;80;21589;-60
2022/10/18 04:32:29;;;;;;;;;;;;;;;9.02;86.88;100917.38;1697071;81;21617;-60
2022/10/18 04:34:56;;;;;;;14.87;6.90;;;;;;;8.96;89.69;100919.20;1687197;84;20422;-60
2022/10/18 04:37:23;;;;;;;9.88;6.70;;;;;;;8.95;87.01;100910.92;1747040;80;21045;-60
2022/10/18 04:39:49;;;;;;;11.33;6.83;;;;;;;8.98;87.30;100907.83;1692492;84;21866;-59
2022/10/18 04:42:16;;;;;;;10.98;7.17;;;;;;;8.97;87.64;100908.28;1758604;80;21537;-62
2022/10/18 04:44:44;;;;;;;12.33;7.58;;;;;;;8.96;87.47;100910.02;1741577;80;21483;-61
2022/10/18 04:47:10;;;;;;;12.35;6.90;;;;;;;8.96;87.73;100906.08;1758615;80;21427;-61
2022/10/18 04:49:38;;;;;;;10.35;7.22;;;;;;;8.99;87.59;100914.37;1740580;80;21431;-61
2022/10/18 04:52:05;;;;;;;11.97;7.08;;;;;;;9.00;87.63;100902.11;1749711;80;21830;-62
2022/10/18 04:54:31;;;;;;;10.53;6.92;;;;;;;9.01;87.15;100907.79;1748604;80;21770;-61
2022/10/18 04:56:59;;;;;;;8.23;6.85;;;;;;;9.01;87.67;100902.55;1747905;80;20934;-61
2022/10/18 04:59:26;;;;;;;15.00;7.10;;;;;;;9.04;87.48;100898.53;1755728;79;21483;-60
2022/10/18 05:01:53;;;;;;;12.20;7.63;;;;;;;9.06;87.49;100896.33;1762265;79;21640;-60
2022/10/18 05:04:20;;;;;;;10.28;6.60;;;;;;;9.07;87.18;100888.86;1747613;80;21550;-62
2022/10/18 05:06:48;;;;;;;12.93;7.30;;;;;;;9.06;87.46;100888.88;1751169;80;21451;-61
2022/10/18 05:09:14;;;;;;;9.38;6.33;;;;;;;9.07;87.84;100895.42;1741696;79;21519;-62
2022/10/18 05:11:41;;;;;;;8.35;6.53;;;;;;;9.11;87.62;100896.23;1689615;84;21459;-61
2022/10/18 05:14:09;;;;;;;10.15;6.33;;;;;;;9.14;87.43;100890.95;1746457;80;21629;-60
2022/10/18 05:16:36;;;;;;;8.08;6.28;;;;;;;9.20;86.85;100888.21;1755701;80;21789;-60
2022/10/18 05:19:04;;;;;;;13.20;6.85;;;;;;;9.26;86.76;100886.78;1762549;80;21537;-60
2022/10/18 05:21:32;;;;;;;8.83;6.83;;;;;;;9.32;86.43;100878.83;1764916;80;21587;-59
2022/10/18 05:24:00;;;;;;;12.15;6.72;;;;;;;9.41;85.92;100881.70;1752886;80;21548;-61
2022/10/18 05:26:26;;;;;;;12.40;7.00;;;;;;;9.47;85.47;100880.73;1765366;80;21578;-61
2022/10/18 05:28:54;;;;;;;9.55;7.03;;;;;;;9.54;85.28;100888.92;1769755;80;21939;-62
2022/10/18 05:31:20;;;;;;;12.45;6.58;;;;;;;9.63;85.02;100888.75;1731693;82;21022;-60
2022/10/18 05:33:48;;;;;;;10.82;6.10;;;;;;;9.69;84.69;100887.77;1766215;80;21500;-60
2022/10/18 05:36:15;;;;;;;12.68;6.80;;;;;;;9.77;84.81;100878.42;1762001;80;21499;-60
2022/10/18 05:38:44;;;;;;;10.60;6.65;;;;;;;9.83;84.21;100876.98;1760388;79;21006;-60
2022/10/18 05:41:11;;;;;;;9.95;6.40;;;;;;;9.92;83.78;100880.73;1758073;80;21878;-60
2022/10/18 05:43:38;;;;;;;9.28;6.92;;;;;;;10.00;83.47;100874.00;1755473;79;21068;-60
2022/10/18 05:46:07;;;;;;;11.35;6.65;;;;;;;10.06;83.40;100875.22;1755114;79;21663;-60
2022/10/18 05:48:34;;;;;;;8.65;6.28;;;;;;;10.18;82.87;100878.02;1767183;79;21458;-60
2022/10/18 05:51:00;;;;;;;8.38;5.87;;;;;;;10.28;82.51;100879.11;1752775;80;21565;-62
2022/10/18 05:53:27;;;;;;;12.58;7.08;;;;;;;10.37;81.93;100872.80;1744768;80;22212;-60
2022/10/18 05:55:54;;;;;;;8.18;5.95;;;;;;;10.47;81.21;100870.39;1767306;79;21656;-61
2022/10/18 05:58:21;;;;;;;8.30;6.60;;;;;;;10.59;80.84;100873.64;1726648;82;21646;-62
2022/10/18 06:00:48;;;;;;;8.98;5.95;;;;;;;10.71;80.25;100871.56;1764751;79;20954;-62
2022/10/18 06:03:14;;;;;;;14.05;6.67;;;;;;;10.84;80.13;100875.23;1763308;80;21593;-61
2022/10/18 06:05:41;;;;;;;9.15;5.92;;;;;;;10.96;78.93;100878.00;1744657;80;21903;-63
2022/10/18 06:08:08;;;;;;;11.35;6.03;;;;;;;11.06;78.37;100883.47;1753964;80;21523;-62
2022/10/18 06:10:39;;;;;;;6.92;5.40;;;;;;;11.17;77.60;100888.02;1759157;79;21599;-64
2022/10/18 06:13:06;;;;;;;8.33;5.80;;;;;;;11.29;77.28;100886.82;1760284;79;20970;-62
2022/10/18 06:15:33;;;;;;;11.33;6.05;;;;;;;11.40;76.78;100878.65;1761991;80;21045;-63
2022/10/18 06:18:04;;;;;;;14.53;5.47;;;;;;;11.52;75.85;100882.72;1760052;79;22146;-62
2022/10/18 06:20:32;;;;;;;8.60;5.67;;;;;;;11.62;75.78;100881.55;1763470;80;21466;-64
2022/10/18 06:22:59;;;;;;;7.75;6.03;;;;;;;11.75;75.36;100882.08;1760021;79;21506;-63
2022/10/18 06:25:26;;;;;;;7.55;5.28;;;;;;;11.83;74.11;100882.75;1746540;80;21546;-63
2022/10/18 06:27:52;;;;;;;10.18;5.30;;;;;;;11.97;74.11;100892.92;1761461;79;21052;-62
2022/10/18 06:30:19;;;;;;;11.70;6.17;;;;;;;12.07;72.79;100893.94;1766051;80;21569;-62
2022/10/18 06:32:47;;;;;;;10.15;6.08;;;;;;;12.25;72.82;100895.61;1762438;80;29210;-62
2022/10/18 06:35:14;;;;;;;7.60;6.08;;;;;;;12.38;72.14;100893.02;1757879;79;21662;-64
2022/10/18 06:37:42;;;;;;;9.65;6.15;;;;;;;12.51;70.97;100897.46;1752664;79;21608;-65
2022/10/18 06:40:10;;;;;;;9.45;6.05;;;;;;;12.63;70.55;100893.57;1755551;79;21581;-63
2022/10/18 06:42:37;;;;;;;;;;;;;;;12.76;69.72;100898.86;1765677;79;21825;-62
2022/10/18 06:45:07;;;;;;;6.08;4.75;;;;;;;12.88;68.63;100892.32;1755419;79;20454;-62
2022/10/18 06:47:33;;;;;;;6.87;5.42;;;;;;;13.02;68.70;100885.29;1759773;80;21043;-62
2022/10/18 06:50:00;;;;;;;8.13;5.67;;;;;;;13.15;67.84;100891.03;1749305;80;21447;-62
2022/10/18 06:52:27;;;;;;;8.13;5.22;;;;;;;13.27;67.10;100880.03;1759567;80;21045;-63
2022/10/18 06:54:53;;;;;;;5.53;4.67;;;;;;;13.41;66.57;100874.29;1744808;80;21470;-63
2022/10/18 06:57:21;;;;;;;7.55;4.78;;;;;;;13.55;65.68;100870.72;1754844;79;21509;-64
2022/10/18 06:59:50;;;;;;;6.85;4.45;;;;;;;13.70;64.46;100864.02;1760485;79;21660;-62
2022/10/18 07:02:16;;;;;;;7.58;4.70;;;;;;;13.83;63.62;100861.33;1753419;79;21533;-63
2022/10/18 07:04:43;;;;;;;7.83;5.05;;;;;;;13.97;63.79;100854.19;1769986;79;21514;-63
2022/10/18 07:07:09;;;;;;;9.18;4.33;;;;;;;14.11;62.83;100857.66;1704925;83;21450;-64
2022/10/18 07:09:36;;;;;;;5.50;4.10;;;;;;;14.26;60.58;100851.35;1753017;80;21513;-63
2022/10/18 07:12:03;;;;;;;11.68;5.50;;;;;;;14.37;60.10;100851.36;1759859;80;21478;-62
2022/10/18 07:14:30;;;;;;;7.00;4.75;;;;;;;14.52;59.76;100845.92;1764453;79;21550;-64
2022/10/18 07:17:00;;;;;;;7.67;5.42;;;;;;;14.68;59.57;100839.56;1768825;79;21467;-63
2022/10/18 07:19:27;;;;;;;5.20;4.65;;;;;;;14.83;58.53;100839.40;1760099;79;22118;-63
2022/10/18 07:21:54;;;;;;;6.42;5.17;;;;;;;14.96;58.16;100832.66;1679936;83;21582;-62
2022/10/18 07:24:21;;;;;;;6.90;5.00;;;;;;;15.11;57.97;100825.86;1736479;80;27053;-62
2022/10/18 07:26:48;;;;;;;6.42;4.80;;;;;;;15.26;57.18;100828.31;1756065;79;21550;-63
2022/10/18 07:29:15;;;;;;;7.33;4.47;;;;;;;15.37;56.57;100831.83;1740696;80;21499;-64
2022/10/18 07:31:42;;;;;;;8.27;3.87;;;;;;;15.47;55.62;100825.17;1741554;79;21535;-62
2022/10/18 07:34:11;;;;;;;7.28;4.75;;;;;;;15.58;55.16;100822.91;1690753;82;21427;-62
2022/10/18 07:36:38;;;;;;;5.20;4.45;;;;;;;15.73;55.68;100820.06;1736133;80;21484;-64
2022/10/18 07:39:05;;;;;;;5.17;4.27;;;;;;;15.87;54.29;100819.89;1751757;80;21470;-64
2022/10/18 07:41:33;;;;;;;6.10;4.28;;;;;;;16.02;54.02;100815.67;1754346;80;21570;-64
2022/10/18 07:43:59;;;;;;;6.28;3.85;;;;;;;16.17;53.40;100818.07;1741599;79;21874;-65
2022/10/18 07:46:26;;;;;;;15.23;4.20;;;;;;;16.31;53.06;100820.91;1736618;80;21452;-64
2022/10/18 07:48:53;;;;;;;7.75;3.72;;;;;;;16.43;51.78;100820.33;1757813;79;21471;-65
2022/10/18 07:51:20;;;;;;;4.12;3.08;;;;;;;16.52;51.20;100812.40;1706068;81;21567;-65
2022/10/18 07:53:47;;;;;;;7.97;4.25;;;;;;;16.58;49.50;100806.78;1740730;81;20939;-65
2022/10/18 07:56:19;;;;;;;5.37;4.17;;;;;;;16.72;50.02;100802.09;1758549;79;21816;-64
2022/10/18 07:58:51;;;;;;;8.15;4.05;;;;;;;16.88;49.99;100798.25;1757829;79;21495;-65
2022/10/18 08:01:18;;;;;;;5.12;3.62;;;;;;;16.98;48.44;100802.14;1731331;80;21553;-65
2022/10/18 08:03:46;;;;;;;7.17;4.08;;;;;;;17.04;47.54;100791.67;1741603;79;21965;-65
2022/10/18 08:06:15;;;;;;;8.70;3.87;;;;;;;17.06;47.15;100796.44;1744039;79;21554;-64
2022/10/18 08:08:43;;;;;;;4.22;3.47;;;;;;;17.21;47.31;100796.11;1745146;79;21795;-64
2022/10/18 08:11:18;;;;;;;6.25;3.52;;;;;;;17.28;46.84;100786.41;1741196;79;21423;-65
2022/10/18 08:13:45;;;;;;;3.83;3.40;;;;;;;17.36;46.54;100786.00;1749280;79;21525;-65
2022/10/18 08:16:16;;;;;;;3.80;3.30;;;;;;;17.48;46.44;100782.70;1754892;79;21624;-65
2022/10/18 08:18:42;;;;;;;5.70;3.55;;;;;;;17.59;46.23;100776.78;1748529;79;21491;-63
2022/10/18 08:21:10;;;;;;;6.58;3.95;;;;;;;17.70;45.68;100780.20;1760214;79;22197;-64
2022/10/18 08:23:38;;;;;;;3.47;3.00;;;;;;;17.77;45.50;100774.09;1755338;79;21556;-64
2022/10/18 08:26:11;;;;;;;4.67;3.70;;;;;;;17.89;45.27;100771.65;1755456;79;20989;-63
2022/10/18 08:28:38;;;;;;;6.25;3.50;;;;;;;18.01;45.06;100774.09;1744010;80;21490;-64
2022/10/18 08:31:10;;;;;;;4.15;3.80;;;;;;;18.08;44.98;100766.16;1742232;80;21487;-66
2022/10/18 08:33:38;;;;;;;5.75;3.50;;;;;;;18.20;44.81;100757.09;1742270;80;21750;-65
2022/10/18 08:36:07;;;;;;;7.05;3.80;;;;;;;18.35;44.55;100749.55;1742709;80;21526;-66
2022/10/18 08:38:34;;;;;;;6.08;3.75;;;;;;;18.45;44.12;100746.72;1747957;80;21033;-64
2022/10/18 08:41:03;;;;;;;;;;;;;;;18.58;44.25;100749.53;1745040;80;21068;-67
2022/10/18 08:43:41;;;;;;;7.12;3.47;;;;;;;18.62;41.39;100738.23;1738336;80;20413;-71
2022/10/18 08:46:12;;;;;;;5.10;3.52;;;;;;;18.43;43.57;100699.36;1738913;80;21875;-65
2022/10/18 08:48:48;;;;;;;4.42;3.77;;;;;;;18.82;43.24;100739.27;1746994;80;21597;-63
2022/10/18 08:51:28;;;;;;;4.53;3.50;;;;;;;18.92;43.11;100735.57;1752653;80;21549;-69
2022/10/18 08:54:10;;;;;;;3.87;3.58;;;;;;;19.09;43.14;100733.70;1745298;80;21572;-67
2022/10/18 08:56:38;;;;;;;4.25;3.80;;;;;;;19.19;42.78;100729.50;1717400;80;21442;-67
2022/10/18 08:59:10;;;;;;;6.87;3.60;;;;;;;19.30;42.43;100724.84;1748163;80;21859;-66
2022/10/18 09:01:52;;;;;;;6.83;3.30;;;;;;;19.41;42.60;100722.37;1754446;80;20935;-66
2022/10/18 09:04:46;;;;;;;4.78;3.50;;;;;;;19.54;42.29;100718.46;1749570;80;21037;-66
2022/10/18 09:07:24;;;;;;;6.42;3.50;;;;;;;19.65;41.90;100721.30;1745127;80;20978;-67
2022/10/18 09:10:14;;;;;;;4.58;3.67;;;;;;;19.74;42.08;100718.08;1748251;80;21520;-66
2022/10/18 09:13:08;;;;;;;4.35;3.92;;;;;;;19.80;41.63;100711.49;1755697;80;21525;-65
2022/10/18 09:16:14;;;;;;;6.20;3.95;;;;;;;19.89;41.43;100702.89;1750625;80;21415;-68
2022/10/18 09:19:05;;;;;;;3.75;3.35;;;;;;;19.99;41.35;100694.66;1744918;80;21549;-67
2022/10/18 09:21:54;;;;;;;6.55;3.77;;;;;;;20.17;40.92;100698.39;1750007;80;21501;-67
2022/10/18 09:24:36;;;;;;;5.83;4.37;;;;;;;20.36;40.81;100691.34;1746476;80;21554;-66
2022/10/18 09:27:17;;;;;;;4.83;3.87;;;;;;;20.49;40.34;100682.03;1744662;80;21572;-69
2022/10/18 09:33:43;;;;;;;4.67;3.72;;;;;;;20.46;40.20;100672.91;1781221;78;23238;-69
2022/10/18 09:36:24;;;;;;;4.17;3.58;;;;;;;20.70;39.51;100664.58;1789687;78;21630;-68
2022/10/18 09:38:57;;;;;;;5.83;4.12;;;;;;;20.75;39.20;100654.41;1781257;78;21780;-66
2022/10/18 09:46:24;;;;;;;4.10;3.70;;;;;;;20.87;38.90;100654.52;1797677;78;21514;-70
2022/10/18 09:49:26;;;;;;;6.37;3.98;;;;;;;21.05;38.86;100645.70;1796858;78;21420;-69
2022/10/18 09:51:53;;;;;;;4.80;3.77;;;;;;;21.08;38.15;100643.66;1793791;78;21510;-69
2022/10/18 09:54:32;;;;;;;5.30;3.83;;;;;;;21.14;38.19;100639.70;1796460;78;21514;-69
2022/10/18 09:57:17;;;;;;;4.08;3.33;;;;;;;21.27;38.46;100627.64;1780018;78;21463;-69
2022/10/18 09:59:48;;;;;;;3.98;3.58;;;;;;;21.48;37.98;100618.08;1719207;81;21430;-71
2022/10/18 10:02:18;;;;;;;4.00;3.42;;;;;;;21.52;37.38;100621.39;1741539;81;21671;-70
2022/10/18 10:04:44;;;;;;;6.95;3.77;;;;;;;21.67;37.35;100608.21;1736201;81;21526;-71
2022/10/18 10:07:16;;;;;;;4.25;3.10;;;;;;;21.73;37.06;100600.21;1734078;81;21514;-70
2022/10/18 10:09:48;;;;;;;4.03;3.52;;;;;;;21.88;37.12;100601.73;1743998;81;21476;-67
2022/10/18 10:12:33;;;;;;;5.10;3.00;;;;;;;21.99;36.97;100594.73;1736775;81;21597;-69
2022/10/18 10:15:10;;;;;;;5.40;3.12;;;;;;;22.15;36.97;100594.80;1735873;81;21026;-66
2022/10/18 10:17:37;;;;;;;;;;;;;;;22.33;36.41;100589.02;1732088;81;21596;-71
2022/10/18 10:20:18;;;;;;;5.30;3.80;;;;;;;22.27;33.54;100582.31;1748616;81;22202;-70
2022/10/18 10:22:46;;;;;;;4.42;3.70;;;;;;;22.28;35.81;100584.49;1733810;81;21513;-69
2022/10/18 10:25:29;;;;;;;5.73;3.70;;;;;;;22.41;35.66;100579.05;1733675;81;21447;-71
2022/10/18 10:28:17;;;;;;;3.70;3.40;;;;;;;22.52;35.12;100567.84;1736335;81;21733;-71
2022/10/18 10:30:44;;;;;;;4.25;3.67;;;;;;;22.47;35.05;100569.18;1714172;81;21537;-69
2022/10/18 10:33:30;;;;;;;5.22;3.35;;;;;;;22.47;35.05;100569.18;1728095;81;21436;-71
2022/10/18 10:35:58;;;;;;;5.55;3.27;;;;;;;22.72;35.23;100556.91;1709123;82;21562;-68
2022/10/18 10:38:27;;;;;;;8.33;3.65;;;;;;;22.84;34.75;100554.22;1724775;81;21244;-70
2022/10/18 10:40:54;;;;;;;4.87;3.75;;;;;;;22.84;34.75;100554.22;1720738;81;21571;-68
2022/10/18 10:43:32;;;;;;;3.67;3.17;;;;;;;23.01;34.16;100548.84;1732159;82;21049;-68
2022/10/18 10:46:11;;;;;;;3.90;3.50;;;;;;;23.01;34.16;100548.84;1779502;79;22240;-70
2022/10/18 10:48:56;;;;;;;5.20;3.90;;;;;;;22.98;34.05;100542.37;1781053;79;21424;-68
2022/10/18 10:51:37;;;;;;;4.30;3.10;;;;;;;22.99;33.99;100546.78;1775760;79;21055;-71
2022/10/18 10:54:11;;;;;;;3.90;3.37;;;;;;;23.04;33.96;100541.94;1777075;79;21605;-68
2022/10/18 10:56:59;;;;;;;3.95;3.55;;;;;;;23.06;33.62;100534.62;1777620;79;21407;-67
2022/10/18 10:59:33;;;;;;;4.10;3.75;;;;;;;23.15;33.65;100533.88;1777340;79;21757;-69
2022/10/18 11:02:31;;;;;;;3.67;3.08;;;;;;;23.10;33.06;100525.34;1777604;79;21038;-67
2022/10/18 11:05:25;;;;;;;3.62;3.33;;;;;;;23.13;33.11;100519.70;1778410;79;21535;-66
2022/10/18 11:07:55;;;;;;;3.20;2.90;;;;;;;23.15;32.94;100519.59;1783072;79;21586;-65
2022/10/18 11:10:24;;;;;;;4.78;3.60;;;;;;;23.17;32.97;100506.44;1785553;79;21550;-62
2022/10/18 11:13:06;;;;;;;6.83;3.05;;;;;;;23.14;33.23;100506.67;1774571;79;21577;-61
2022/10/18 11:15:45;;;;;;;3.95;3.55;;;;;;;23.17;33.04;100505.55;1769705;79;21526;-63
2022/10/18 11:18:34;;;;;;;4.15;3.08;;;;;;;23.24;33.00;100502.24;1769423;79;21498;-62
2022/10/18 11:21:18;;;;;;;5.10;3.77;;;;;;;23.26;32.67;100501.66;1778302;79;20991;-64
2022/10/18 11:23:44;;;;;;;5.50;3.27;;;;;;;23.27;32.56;100491.27;1780998;79;21878;-63
2022/10/18 11:26:43;;;;;;;3.25;2.95;;;;;;;23.33;32.29;100485.39;1777035;79;22171;-64
2022/10/18 11:29:21;;;;;;;6.80;3.67;;;;;;;23.39;32.32;100481.84;1779527;79;21081;-63
2022/10/18 11:32:14;;;;;;;4.67;3.42;;;;;;;23.39;32.27;100477.81;1774460;79;21562;-62
2022/10/18 11:35:05;;;;;;;5.67;3.62;;;;;;;23.36;31.82;100468.20;1772820;79;21448;-64
2022/10/18 11:37:57;;;;;;;4.55;3.00;;;;;;;23.35;31.93;100474.53;1772321;79;21497;-63
2022/10/18 11:40:51;;;;;;;3.65;3.35;;;;;;;23.28;31.91;100466.16;1770196;79;21501;-63
2022/10/18 11:43:38;;;;;;;4.58;3.47;;;;;;;23.31;31.57;100463.20;1776283;79;21558;-64
2022/10/18 11:46:44;;;;;;;4.20;3.17;;;;;;;23.34;31.53;100452.72;1769927;79;21558;-65
2022/10/18 11:49:36;;;;;;;6.58;3.17;;;;;;;24.04;31.20;100445.88;1779153;79;21007;-66
2022/10/18 11:52:47;;;;;;;4.78;3.10;;;;;;;26.00;28.65;100442.54;1778361;79;20970;-64
2022/10/18 11:55:39;;;;;;;5.15;3.15;;;;;;;26.96;26.97;100440.06;1772739;79;21822;-66
2022/10/18 11:58:17;;;;;;;3.77;3.37;;;;;;;27.24;26.93;100422.43;1780157;79;21617;-68